Terminal Aerodrome Forecast
Issued by NWS

Home | Current Version | Previous Version | Text Only | Print | Product List | Glossary On
Versions: 1 2 3 4 5 6 7 8 9 10 11 12 13 14 15
932
FTUS45 KMSO 221445 AAB
TAFSMN
TAF AMD
KSMN 221445Z 2215/2312 VRB03KT 4SM -SN BR OVC040
      TEMPO 2215/2219 2SM -SN BR OVC030
     FM221900 VRB03KT P6SM VCSH BKN050
     FM230100 00000KT 4SM -SN BR OVC040
     FM230800 00000KT P6SM OVC050=

USA.gov is the U.S. government's official web portal to all federal, state and local government web resources and services.